createdAt,value
2023-03-10T00:02:24.786Z,9.90
2023-03-10T00:09:25.666Z,10.00
2023-03-10T00:16:29.735Z,10.10
2023-03-10T00:23:30.482Z,10.10
2023-03-10T00:30:35.008Z,10.20
2023-03-10T00:37:39.260Z,10.30
2023-03-10T00:44:39.603Z,10.30
2023-03-10T00:51:40.189Z,10.30
2023-03-10T00:58:40.876Z,10.30
2023-03-10T01:05:41.099Z,10.20
2023-03-10T01:12:42.116Z,10.20
2023-03-10T01:19:42.593Z,10.20
2023-03-10T01:26:43.226Z,10.20
2023-03-10T01:33:44.314Z,10.20
2023-03-10T01:40:50.171Z,10.20
2023-03-10T01:47:50.350Z,10.20
2023-03-10T01:54:59.716Z,10.10
2023-03-10T02:02:01.316Z,10.20
2023-03-10T02:09:03.896Z,10.20
2023-03-10T02:16:04.701Z,10.10
2023-03-10T02:23:05.244Z,10.10
2023-03-10T02:30:21.348Z,10.10
2023-03-10T02:37:28.621Z,10.10
2023-03-10T02:44:28.974Z,10.10
2023-03-10T02:51:33.556Z,9.90
2023-03-10T02:58:38.314Z,9.70
2023-03-10T03:05:41.668Z,9.70
2023-03-10T03:12:42.424Z,9.70
2023-03-10T03:19:42.822Z,9.70
2023-03-10T03:26:43.184Z,9.70
2023-03-10T03:33:49.148Z,9.60
2023-03-10T03:40:49.592Z,9.60
2023-03-10T03:47:53.954Z,9.70
2023-03-10T03:54:54.672Z,9.70
2023-03-10T04:01:55.763Z,9.80
2023-03-10T04:08:57.723Z,9.80
2023-03-10T04:16:00.933Z,9.80
2023-03-10T04:23:06.407Z,9.90
2023-03-10T04:30:12.461Z,9.80
2023-03-10T04:37:15.453Z,9.80
2023-03-10T04:44:29.862Z,9.80
2023-03-10T04:51:31.386Z,9.80
2023-03-10T04:58:31.819Z,9.80
2023-03-10T05:05:37.495Z,9.80
2023-03-10T05:12:39.414Z,9.80
2023-03-10T05:19:40.593Z,9.70
2023-03-10T05:26:41.826Z,9.70
2023-03-10T05:33:42.819Z,9.60
2023-03-10T05:40:44.315Z,9.60
2023-03-10T05:47:48.109Z,9.50
2023-03-10T05:54:50.558Z,9.50
2023-03-10T06:01:51.474Z,9.50
2023-03-10T06:08:51.971Z,9.50
2023-03-10T06:15:56.811Z,9.50
2023-03-10T06:22:57.142Z,9.60
2023-03-10T06:29:57.896Z,9.60
2023-03-10T06:36:58.094Z,9.60
2023-03-10T06:43:58.528Z,9.70
2023-03-10T06:50:59.256Z,9.70
2023-03-10T06:57:59.342Z,9.80
2023-03-10T07:04:59.810Z,9.80
2023-03-10T07:12:00.234Z,9.80
2023-03-10T07:19:00.612Z,9.90
2023-03-10T07:26:01.103Z,9.90
2023-03-10T07:33:01.338Z,10.00
2023-03-10T07:40:01.650Z,10.10
2023-03-10T07:47:02.397Z,10.10
2023-03-10T07:54:03.341Z,10.10
2023-03-10T08:01:04.245Z,10.30
2023-03-10T08:08:05.316Z,10.40
2023-03-10T08:15:06.627Z,10.60
2023-03-10T08:22:07.095Z,10.70
2023-03-10T08:29:07.436Z,10.80
2023-03-10T08:36:11.701Z,10.90
2023-03-10T08:43:12.217Z,10.90
2023-03-10T08:50:13.995Z,11.00
2023-03-10T08:57:14.462Z,11.20
2023-03-10T09:04:17.765Z,11.30
2023-03-10T09:11:25.530Z,11.50
2023-03-10T09:18:25.800Z,11.60
2023-03-10T09:25:27.391Z,11.70
2023-03-10T09:32:27.932Z,11.90
2023-03-10T09:39:28.233Z,12.00
2023-03-10T09:47:15.075Z,11.90
2023-03-10T09:55:00.670Z,12.00
2023-03-10T10:02:03.232Z,12.10
2023-03-10T10:09:09.128Z,12.30
2023-03-10T10:16:34.533Z,12.60
2023-03-10T10:23:49.029Z,12.70
2023-03-10T10:30:49.697Z,12.90
2023-03-10T10:37:59.672Z,12.90
2023-03-10T10:45:19.146Z,13.00
2023-03-10T10:52:25.029Z,13.20
2023-03-10T10:59:35.851Z,13.20
2023-03-10T11:06:37.956Z,13.20
2023-03-10T11:13:56.543Z,13.10
2023-03-10T11:21:13.767Z,13.00
2023-03-10T11:28:25.366Z,12.70
2023-03-10T11:35:48.979Z,12.40
2023-03-10T11:42:55.082Z,12.00
2023-03-10T11:50:15.261Z,11.70
2023-03-10T11:57:18.481Z,11.60
2023-03-10T12:04:37.449Z,11.40
2023-03-10T12:11:37.979Z,11.30
2023-03-10T12:18:38.326Z,10.90
2023-03-10T12:25:38.718Z,10.80
2023-03-10T12:32:47.270Z,10.70
2023-03-10T12:39:47.800Z,10.70
2023-03-10T12:47:24.673Z,10.70
2023-03-10T12:54:35.348Z,10.70
2023-03-10T13:01:55.203Z,10.60
2023-03-10T13:09:01.788Z,10.50
2023-03-10T13:16:04.988Z,10.40
2023-03-10T13:23:05.947Z,10.30
2023-03-10T13:30:20.586Z,10.20
2023-03-10T13:37:21.115Z,10.10
2023-03-10T13:44:24.778Z,10.00
2023-03-10T13:51:32.310Z,10.00
2023-03-10T13:58:32.981Z,10.00
2023-03-10T14:05:45.382Z,10.10
2023-03-10T14:12:51.484Z,10.00
2023-03-10T14:19:52.082Z,9.90
2023-03-10T14:26:52.665Z,9.50
2023-03-10T14:33:53.052Z,9.20
2023-03-10T14:40:54.726Z,9.10
2023-03-10T14:47:57.294Z,9.00
2023-03-10T14:54:57.423Z,8.80
2023-03-10T15:02:01.632Z,8.70
2023-03-10T15:09:02.074Z,8.60
2023-03-10T15:16:02.428Z,8.40
2023-03-10T15:23:02.801Z,8.30
2023-03-10T15:30:03.854Z,8.20
2023-03-10T15:37:07.213Z,8.00
2023-03-10T15:44:07.464Z,7.90
2023-03-10T15:51:09.975Z,7.80
2023-03-10T15:58:11.657Z,7.70
2023-03-10T16:05:11.796Z,7.60
2023-03-10T16:12:12.193Z,7.60
2023-03-10T16:19:12.420Z,7.60
2023-03-10T16:26:17.462Z,7.40
2023-03-10T16:33:17.911Z,7.30
2023-03-10T16:40:18.516Z,7.10
2023-03-10T16:47:19.002Z,6.40
2023-03-10T16:54:21.490Z,5.20
2023-03-10T17:01:24.137Z,4.30
2023-03-10T17:08:25.033Z,3.60
2023-03-10T17:15:25.530Z,3.10
2023-03-10T17:22:26.441Z,2.60
2023-03-10T17:29:26.912Z,2.00
2023-03-10T17:36:28.003Z,1.70
2023-03-10T17:43:34.494Z,1.50
2023-03-10T17:50:35.142Z,1.30
2023-03-10T17:57:35.685Z,1.10
2023-03-10T18:04:36.365Z,1.00
2023-03-10T18:11:37.127Z,1.00
2023-03-10T18:18:37.628Z,1.00
2023-03-10T18:25:43.446Z,1.10
2023-03-10T18:32:43.827Z,1.10
2023-03-10T18:39:44.222Z,1.10
2023-03-10T18:46:44.627Z,1.20
2023-03-10T18:53:45.105Z,1.30
2023-03-10T19:00:45.830Z,1.30
2023-03-10T19:07:46.563Z,1.30
2023-03-10T19:14:47.488Z,1.30
2023-03-10T19:21:47.615Z,1.40
2023-03-10T19:28:48.367Z,1.40
2023-03-10T19:35:48.672Z,1.30
2023-03-10T19:42:49.293Z,1.40
2023-03-10T19:49:49.627Z,1.20
2023-03-10T19:56:49.999Z,1.30
2023-03-10T20:03:52.003Z,1.30
2023-03-10T20:10:52.711Z,1.30
2023-03-10T20:17:53.315Z,1.10
2023-03-10T20:24:53.437Z,1.10
2023-03-10T20:31:53.740Z,1.20
2023-03-10T20:38:54.092Z,1.20
2023-03-10T20:45:54.421Z,1.20
2023-03-10T20:52:54.833Z,1.30
2023-03-10T20:59:58.209Z,1.30
2023-03-10T21:06:58.609Z,1.40
2023-03-10T21:13:59.139Z,1.40
2023-03-10T21:21:02.363Z,1.30
2023-03-10T21:28:14.043Z,1.40
2023-03-10T21:35:14.803Z,1.40
2023-03-10T21:42:15.540Z,1.40
2023-03-10T21:49:15.727Z,1.40
2023-03-10T21:56:17.699Z,1.40
2023-03-10T22:03:18.206Z,1.40
2023-03-10T22:10:18.911Z,1.30
2023-03-10T22:17:19.132Z,1.30
2023-03-10T22:24:19.234Z,1.30
2023-03-10T22:31:22.273Z,1.20
2023-03-10T22:38:22.993Z,1.20
2023-03-10T22:45:26.766Z,1.20
2023-03-10T22:52:26.997Z,1.20
2023-03-10T22:59:27.506Z,1.20
2023-03-10T23:06:29.025Z,1.30
2023-03-10T23:13:29.519Z,1.30
2023-03-10T23:20:39.128Z,1.30
2023-03-10T23:27:39.560Z,1.40
2023-03-10T23:34:39.777Z,1.50
2023-03-10T23:41:40.335Z,1.50
2023-03-10T23:48:40.458Z,1.50
2023-03-10T23:55:44.204Z,1.50
